createdAt,value
2023-02-11T00:00:41.433Z,77.20
2023-02-11T00:01:42.582Z,77.00
2023-02-11T00:02:42.779Z,78.40
2023-02-11T00:03:43.604Z,75.80
2023-02-11T00:04:44.268Z,78.10
2023-02-11T00:05:44.986Z,83.10
2023-02-11T00:06:45.681Z,76.20
2023-02-11T00:07:46.386Z,75.60
2023-02-11T00:08:47.099Z,80.70
2023-02-11T00:09:47.809Z,75.90
2023-02-11T00:10:48.852Z,75.80
2023-02-11T00:11:49.574Z,79.10
2023-02-11T00:12:49.802Z,78.20
2023-02-11T00:13:50.481Z,81.10
2023-02-11T00:14:51.185Z,78.90
2023-02-11T00:15:52.145Z,75.10
2023-02-11T00:16:52.492Z,75.10
2023-02-11T00:17:53.172Z,80.70
2023-02-11T00:18:53.877Z,83.10
2023-02-11T00:19:54.577Z,78.70
2023-02-11T00:20:55.354Z,75.50
2023-02-11T00:21:55.984Z,74.70
2023-02-11T00:22:56.689Z,74.20
2023-02-11T00:23:57.390Z,80.10
2023-02-11T00:24:58.095Z,74.90
2023-02-11T00:25:58.802Z,77.60
2023-02-11T00:26:59.513Z,79.50
2023-02-11T00:28:00.315Z,82.40
2023-02-11T00:29:00.988Z,76.70
2023-02-11T00:30:01.670Z,82.60
2023-02-11T00:31:02.477Z,71.20
2023-02-11T00:32:03.618Z,77.70
2023-02-11T00:33:03.808Z,76.60
2023-02-11T00:34:04.505Z,75.10
2023-02-11T00:35:05.218Z,78.10
2023-02-11T00:36:05.929Z,79.90
2023-02-11T00:37:06.570Z,78.20
2023-02-11T00:38:07.275Z,83.40
2023-02-11T00:39:07.976Z,76.10
2023-02-11T00:40:08.696Z,72.60
2023-02-11T00:41:09.393Z,71.40
2023-02-11T00:42:10.125Z,77.80
2023-02-11T00:43:10.855Z,77.50
2023-02-11T00:44:11.538Z,76.50
2023-02-11T00:45:12.245Z,73.30
2023-02-11T00:46:13.021Z,78.00
2023-02-11T00:47:14.075Z,71.70
2023-02-11T00:48:14.283Z,74.80
2023-02-11T00:49:14.985Z,67.00
2023-02-11T00:50:15.690Z,75.40
2023-02-11T00:51:16.413Z,72.10
2023-02-11T00:52:17.058Z,74.20
2023-02-11T00:53:17.756Z,70.00
2023-02-11T00:54:18.460Z,71.50
2023-02-11T00:55:19.173Z,70.30
2023-02-11T00:56:19.882Z,70.00
2023-02-11T00:57:21.077Z,69.40
2023-02-11T00:58:21.306Z,63.20
2023-02-11T00:59:21.987Z,74.60
2023-02-11T01:00:22.704Z,69.10
2023-02-11T01:01:23.454Z,68.30
2023-02-11T01:02:24.574Z,66.90
2023-02-11T01:03:24.781Z,66.80
2023-02-11T01:04:25.486Z,71.30
2023-02-11T01:05:26.284Z,63.90
2023-02-11T01:06:26.966Z,65.40
2023-02-11T01:07:28.079Z,66.10
2023-02-11T01:08:28.293Z,68.80
2023-02-11T01:09:29.006Z,65.60
2023-02-11T01:10:29.772Z,60.10
2023-02-11T01:11:30.473Z,61.10
2023-02-11T01:12:32.597Z,64.20
2023-02-11T01:13:32.135Z,63.20
2023-02-11T01:14:32.830Z,61.30
2023-02-11T01:15:33.571Z,65.00
2023-02-11T01:16:34.270Z,66.20
2023-02-11T01:17:34.994Z,61.50
2023-02-11T01:18:35.694Z,67.60
2023-02-11T01:19:36.405Z,63.50
2023-02-11T01:20:37.117Z,62.40
2023-02-11T01:21:38.109Z,66.80
2023-02-11T01:22:39.087Z,58.70
2023-02-11T01:23:39.284Z,63.80
2023-02-11T01:24:39.992Z,61.90
2023-02-11T01:25:40.700Z,59.30
2023-02-11T01:26:41.402Z,57.50
2023-02-11T01:27:42.585Z,68.20
2023-02-11T01:28:42.811Z,61.40
2023-02-11T01:29:43.496Z,58.40
2023-02-11T01:30:44.228Z,59.20
2023-02-11T01:31:44.924Z,59.00
2023-02-11T01:32:45.620Z,56.00
2023-02-11T01:33:46.325Z,61.90
2023-02-11T01:34:47.045Z,54.80
2023-02-11T01:35:47.988Z,59.60
2023-02-11T01:36:48.307Z,65.30
2023-02-11T01:37:48.957Z,64.00
2023-02-11T01:38:49.649Z,58.30
2023-02-11T01:39:50.357Z,61.60
2023-02-11T01:40:51.074Z,53.60
2023-02-11T01:41:51.773Z,59.00
2023-02-11T01:42:53.142Z,57.40
2023-02-11T01:43:53.354Z,62.30
2023-02-11T01:44:54.059Z,62.20
2023-02-11T01:45:54.747Z,60.40
2023-02-11T01:46:55.447Z,60.10
2023-02-11T01:47:56.169Z,55.90
2023-02-11T01:48:56.931Z,60.10
2023-02-11T01:49:57.602Z,58.80
2023-02-11T01:50:58.306Z,51.50
2023-02-11T01:51:59.029Z,57.10
2023-02-11T01:52:59.666Z,58.90
2023-02-11T01:54:00.415Z,57.50
2023-02-11T01:55:01.124Z,58.20
2023-02-11T01:56:01.840Z,51.90
2023-02-11T01:57:02.548Z,56.10
2023-02-11T01:58:03.264Z,56.20
2023-02-11T01:59:03.995Z,56.80
2023-02-11T02:00:04.676Z,58.60
2023-02-11T02:01:05.379Z,60.00
2023-02-11T02:02:06.090Z,61.50
2023-02-11T02:03:06.799Z,68.20
2023-02-11T02:04:07.502Z,64.40
2023-02-11T02:05:08.210Z,67.80
2023-02-11T02:06:08.911Z,70.60
2023-02-11T02:07:09.640Z,87.60
2023-02-11T02:08:10.585Z,83.70
2023-02-11T02:09:10.796Z,76.00
2023-02-11T02:10:11.500Z,91.60
2023-02-11T02:11:12.204Z,86.40
2023-02-11T02:12:12.914Z,80.00
2023-02-11T02:13:13.624Z,80.80
2023-02-11T02:14:14.354Z,76.30
2023-02-11T02:15:15.041Z,81.30
2023-02-11T02:16:15.803Z,80.90
2023-02-11T02:17:16.498Z,78.30
2023-02-11T02:18:17.166Z,77.40
2023-02-11T02:19:17.876Z,84.20
2023-02-11T02:20:18.581Z,76.10
2023-02-11T02:21:19.286Z,85.00
2023-02-11T02:22:20.008Z,80.10
2023-02-11T02:23:20.643Z,74.90
2023-02-11T02:24:21.349Z,72.70
2023-02-11T02:25:22.060Z,69.10
2023-02-11T02:26:22.753Z,69.70
2023-02-11T02:27:23.462Z,68.40
2023-02-11T02:28:24.712Z,70.10
2023-02-11T02:29:24.932Z,68.70
2023-02-11T02:30:25.668Z,69.70
2023-02-11T02:31:26.365Z,69.20
2023-02-11T02:32:27.039Z,63.20
2023-02-11T02:33:28.078Z,69.70
2023-02-11T02:34:28.284Z,66.60
2023-02-11T02:35:28.988Z,61.00
2023-02-11T02:36:29.691Z,70.80
2023-02-11T02:37:30.416Z,66.20
2023-02-11T02:38:31.084Z,66.20
2023-02-11T02:39:31.812Z,61.70
2023-02-11T02:40:32.499Z,66.40
2023-02-11T02:41:33.202Z,63.40
2023-02-11T02:42:33.908Z,66.90
2023-02-11T02:43:35.069Z,65.10
2023-02-11T02:44:35.289Z,62.40
2023-02-11T02:45:35.975Z,62.70
2023-02-11T02:46:36.768Z,59.90
2023-02-11T02:47:37.450Z,67.00
2023-02-11T02:48:38.590Z,65.10
2023-02-11T02:49:38.791Z,66.10
2023-02-11T02:50:39.499Z,60.40
2023-02-11T02:51:40.206Z,60.10
2023-02-11T02:52:40.949Z,65.90
2023-02-11T02:53:42.098Z,67.50
2023-02-11T02:54:42.396Z,70.20
2023-02-11T02:55:43.106Z,59.40
2023-02-11T02:56:43.815Z,63.70
2023-02-11T02:57:44.525Z,64.40
2023-02-11T02:58:47.210Z,63.80
2023-02-11T02:59:45.996Z,69.00
2023-02-11T03:00:46.753Z,64.80
2023-02-11T03:01:47.400Z,65.50
2023-02-11T03:02:48.103Z,57.50
2023-02-11T03:03:48.850Z,65.70
2023-02-11T03:04:49.525Z,66.60
2023-02-11T03:05:50.572Z,63.40
2023-02-11T03:06:50.946Z,69.30
2023-02-11T03:07:51.669Z,62.10
2023-02-11T03:08:52.322Z,60.00
2023-02-11T03:09:53.026Z,64.30
2023-02-11T03:10:53.733Z,68.40
2023-02-11T03:11:54.435Z,60.50
2023-02-11T03:12:55.140Z,64.70
2023-02-11T03:13:55.860Z,69.10
2023-02-11T03:14:56.584Z,67.60
2023-02-11T03:15:57.324Z,66.50
2023-02-11T03:16:58.044Z,66.80
2023-02-11T03:17:58.742Z,61.40
2023-02-11T03:18:59.463Z,60.50
2023-02-11T03:20:00.159Z,62.70
2023-02-11T03:21:00.910Z,63.60
2023-02-11T03:22:01.575Z,64.90
2023-02-11T03:23:02.293Z,72.10
2023-02-11T03:24:02.966Z,60.00
2023-02-11T03:25:03.665Z,63.70
2023-02-11T03:26:04.373Z,65.00
2023-02-11T03:27:05.079Z,67.00
2023-02-11T03:28:05.872Z,62.20
2023-02-11T03:29:06.587Z,60.50
2023-02-11T03:30:07.314Z,61.30
2023-02-11T03:31:08.216Z,64.80
2023-02-11T03:32:08.995Z,61.90
2023-02-11T03:33:09.734Z,59.70
2023-02-11T03:34:10.589Z,60.90
2023-02-11T03:35:11.315Z,68.50
2023-02-11T03:36:12.060Z,58.30
2023-02-11T03:37:12.736Z,63.30
2023-02-11T03:38:13.445Z,68.00
2023-02-11T03:39:14.087Z,66.10
2023-02-11T03:40:14.792Z,60.10
2023-02-11T03:41:15.496Z,64.70
2023-02-11T03:42:16.210Z,62.60
2023-02-11T03:43:16.910Z,62.20
2023-02-11T03:44:18.072Z,63.80
2023-02-11T03:45:18.298Z,61.50
2023-02-11T03:46:19.044Z,60.10
2023-02-11T03:47:19.712Z,57.30
2023-02-11T03:48:20.439Z,62.90
2023-02-11T03:49:21.598Z,65.60
2023-02-11T03:50:21.806Z,60.20
2023-02-11T03:51:22.519Z,62.20
2023-02-11T03:52:23.230Z,64.40
2023-02-11T03:53:23.948Z,57.90
2023-02-11T03:54:24.601Z,70.00
2023-02-11T03:55:25.305Z,64.30
2023-02-11T03:56:26.011Z,63.20
2023-02-11T03:57:26.727Z,75.90
2023-02-11T03:58:27.433Z,67.50
2023-02-11T03:59:28.595Z,82.50
2023-02-11T04:00:28.823Z,81.80
2023-02-11T04:01:29.611Z,87.40
2023-02-11T04:02:30.329Z,96.10
2023-02-11T04:03:31.063Z,94.00
2023-02-11T04:04:31.753Z,88.50
2023-02-11T04:05:32.453Z,99.60
2023-02-11T04:06:33.220Z,109.50
2023-02-11T04:07:33.864Z,110.90
2023-02-11T04:08:34.608Z,110.50
2023-02-11T04:09:35.595Z,117.60
2023-02-11T04:10:35.800Z,130.00
2023-02-11T04:11:36.509Z,125.80
2023-02-11T04:12:37.220Z,127.20
2023-02-11T04:13:37.926Z,124.10
2023-02-11T04:14:38.640Z,122.30
2023-02-11T04:15:39.365Z,134.60
2023-02-11T04:16:40.146Z,137.80
2023-02-11T04:17:40.797Z,124.50
2023-02-11T04:18:41.508Z,129.60
2023-02-11T04:19:42.235Z,132.90
2023-02-11T04:20:42.943Z,154.80
2023-02-11T04:21:43.643Z,144.60
2023-02-11T04:22:44.353Z,154.50
2023-02-11T04:23:45.092Z,171.30
2023-02-11T04:24:46.100Z,185.10
2023-02-11T04:25:46.298Z,180.70
2023-02-11T04:26:47.031Z,188.10
2023-02-11T04:27:47.731Z,191.20
2023-02-11T04:28:48.456Z,204.40
2023-02-11T04:29:49.173Z,210.20
2023-02-11T04:30:49.906Z,219.70
2023-02-11T04:31:50.616Z,221.60
2023-02-11T04:32:51.283Z,234.80
2023-02-11T04:33:51.990Z,250.50
2023-02-11T04:34:52.702Z,245.70
2023-02-11T04:35:53.410Z,259.90
2023-02-11T04:36:54.126Z,271.10
2023-02-11T04:37:54.833Z,279.70
2023-02-11T04:38:55.557Z,306.00
2023-02-11T04:39:56.207Z,319.50
2023-02-11T04:40:56.909Z,335.00
2023-02-11T04:41:57.616Z,337.70
2023-02-11T04:42:58.325Z,336.70
2023-02-11T04:43:59.038Z,359.30
2023-02-11T04:45:00.648Z,349.50
2023-02-11T04:46:00.450Z,355.10
2023-02-11T04:47:01.104Z,360.70
2023-02-11T04:48:01.809Z,359.00
2023-02-11T04:49:02.517Z,383.50
2023-02-11T04:50:03.326Z,389.10
2023-02-11T04:51:04.007Z,393.60
2023-02-11T04:52:04.707Z,382.20
2023-02-11T04:53:05.414Z,381.80
2023-02-11T04:54:06.135Z,397.30
2023-02-11T04:55:06.773Z,411.80
2023-02-11T04:56:07.480Z,411.70
2023-02-11T04:57:08.190Z,421.90
2023-02-11T04:58:08.896Z,418.90
2023-02-11T04:59:09.646Z,399.40
2023-02-11T05:00:10.600Z,395.50
2023-02-11T05:01:10.870Z,425.90
2023-02-11T05:02:11.521Z,433.70
2023-02-11T05:03:12.231Z,423.50
2023-02-11T05:04:12.977Z,434.20
2023-02-11T05:05:13.654Z,440.60
2023-02-11T05:06:14.359Z,426.90
2023-02-11T05:07:15.066Z,436.00
2023-02-11T05:08:15.773Z,444.90
2023-02-11T05:09:16.496Z,432.40
2023-02-11T05:10:17.132Z,439.70
2023-02-11T05:11:17.844Z,441.10
2023-02-11T05:12:18.545Z,445.50
2023-02-11T05:13:19.256Z,441.80
2023-02-11T05:14:19.958Z,431.40
2023-02-11T05:15:21.102Z,438.90
2023-02-11T05:16:21.392Z,417.70
2023-02-11T05:17:22.100Z,426.30
2023-02-11T05:18:22.810Z,431.50
2023-02-11T05:19:23.514Z,414.20
2023-02-11T05:20:24.632Z,424.60
2023-02-11T05:21:24.805Z,432.70
2023-02-11T05:22:25.561Z,440.70
2023-02-11T05:23:26.262Z,441.60
2023-02-11T05:24:26.986Z,443.10
2023-02-11T05:25:27.621Z,421.80
2023-02-11T05:26:28.337Z,426.10
2023-02-11T05:27:29.036Z,422.20
2023-02-11T05:28:29.831Z,438.70
2023-02-11T05:29:30.495Z,404.60
2023-02-11T05:30:31.642Z,428.30
2023-02-11T05:31:31.822Z,425.90
2023-02-11T05:32:32.508Z,398.00
2023-02-11T05:33:33.214Z,398.30
2023-02-11T05:34:33.918Z,399.20
2023-02-11T05:35:34.632Z,412.70
2023-02-11T05:36:35.342Z,400.40
2023-02-11T05:37:36.139Z,389.80
2023-02-11T05:38:36.800Z,400.50
2023-02-11T05:39:37.523Z,404.20
2023-02-11T05:40:38.171Z,405.30
2023-02-11T05:41:38.865Z,402.00
2023-02-11T05:42:39.568Z,422.40
2023-02-11T05:43:40.278Z,401.10
2023-02-11T05:44:40.988Z,380.20
2023-02-11T05:45:42.156Z,405.30
2023-02-11T05:46:42.445Z,399.30
2023-02-11T05:47:43.089Z,400.20
2023-02-11T05:48:43.795Z,367.50
2023-02-11T05:49:44.503Z,384.90
2023-02-11T05:50:45.616Z,376.10
2023-02-11T05:51:45.812Z,392.70
2023-02-11T05:52:46.519Z,377.50
2023-02-11T05:53:47.290Z,395.30
2023-02-11T05:54:48.098Z,362.80
2023-02-11T05:55:49.488Z,381.80
2023-02-11T05:56:49.386Z,368.50
2023-02-11T05:57:50.078Z,353.00
2023-02-11T05:58:50.787Z,342.10
2023-02-11T05:59:51.493Z,346.90
2023-02-11T06:00:52.207Z,350.20
2023-02-11T06:01:52.932Z,359.10
2023-02-11T06:02:53.766Z,336.80
2023-02-11T06:03:54.473Z,348.30
2023-02-11T06:04:55.163Z,371.60
2023-02-11T06:05:55.853Z,369.40
2023-02-11T06:06:56.549Z,369.10
2023-02-11T06:07:57.251Z,366.20
2023-02-11T06:08:57.962Z,360.70
2023-02-11T06:09:58.690Z,358.90
2023-02-11T06:10:59.379Z,352.90
2023-02-11T06:12:00.110Z,379.30
2023-02-11T06:13:00.789Z,359.90
2023-02-11T06:14:01.533Z,330.50
2023-02-11T06:15:02.200Z,346.20
2023-02-11T06:16:02.974Z,327.60
2023-02-11T06:17:03.702Z,336.00
2023-02-11T06:18:04.378Z,343.70
2023-02-11T06:19:05.082Z,352.80
2023-02-11T06:20:05.810Z,352.40
2023-02-11T06:21:06.603Z,359.50
2023-02-11T06:22:07.307Z,354.40
2023-02-11T06:23:08.023Z,307.80
2023-02-11T06:24:08.724Z,318.90
2023-02-11T06:25:09.453Z,347.50
2023-02-11T06:26:10.604Z,336.40
2023-02-11T06:27:10.812Z,325.20
2023-02-11T06:28:11.650Z,322.00
2023-02-11T06:29:12.309Z,312.10
2023-02-11T06:30:13.005Z,321.50
2023-02-11T06:31:13.870Z,320.20
2023-02-11T06:32:36.922Z,302.60
2023-02-11T06:33:16.168Z,298.00
2023-02-11T06:34:15.870Z,306.00
2023-02-11T06:35:16.584Z,306.90
2023-02-11T06:36:17.604Z,298.30
2023-02-11T06:37:17.809Z,313.80
2023-02-11T06:38:18.510Z,301.70
2023-02-11T06:39:19.220Z,285.80
2023-02-11T06:40:19.941Z,294.50
2023-02-11T06:41:20.609Z,292.30
2023-02-11T06:42:21.316Z,290.30
2023-02-11T06:43:22.029Z,290.90
2023-02-11T06:44:22.726Z,297.70
2023-02-11T06:45:23.436Z,306.90
2023-02-11T06:46:25.209Z,295.10
2023-02-11T06:47:24.928Z,304.50
2023-02-11T06:48:25.602Z,292.90
2023-02-11T06:49:26.310Z,294.30
2023-02-11T06:50:27.010Z,305.40
2023-02-11T06:51:27.750Z,302.80
2023-02-11T06:52:28.427Z,288.20
2023-02-11T06:53:29.137Z,290.40
2023-02-11T06:54:29.837Z,268.50
2023-02-11T06:55:30.560Z,262.70
2023-02-11T06:56:31.224Z,263.80
2023-02-11T06:57:31.926Z,275.30
2023-02-11T06:58:32.629Z,281.00
2023-02-11T06:59:33.334Z,264.90
2023-02-11T07:00:34.040Z,251.60
2023-02-11T07:01:34.812Z,259.90
2023-02-11T07:02:35.504Z,278.60
2023-02-11T07:03:36.164Z,262.10
2023-02-11T07:04:36.887Z,262.00
2023-02-11T07:05:37.599Z,258.00
2023-02-11T07:06:38.305Z,256.90
2023-02-11T07:07:39.008Z,261.30
2023-02-11T07:08:39.712Z,251.70
2023-02-11T07:09:40.414Z,255.30
2023-02-11T07:10:41.134Z,254.70
2023-02-11T07:11:41.773Z,268.80
2023-02-11T07:12:42.475Z,256.70
2023-02-11T07:13:43.179Z,245.50
2023-02-11T07:14:43.910Z,256.90
2023-02-11T07:15:44.639Z,269.40
2023-02-11T07:16:45.335Z,253.80
2023-02-11T07:17:46.044Z,254.90
2023-02-11T07:18:46.745Z,263.40
2023-02-11T07:19:47.453Z,258.80
2023-02-11T07:20:48.158Z,268.90
2023-02-11T07:21:49.114Z,282.30
2023-02-11T07:22:49.813Z,271.30
2023-02-11T07:23:50.534Z,275.30
2023-02-11T07:24:51.232Z,295.30
2023-02-11T07:25:52.200Z,290.10
2023-02-11T07:26:52.503Z,291.70
2023-02-11T07:27:53.212Z,285.30
2023-02-11T07:28:53.914Z,294.90
2023-02-11T07:29:54.622Z,270.50
2023-02-11T07:30:55.364Z,277.50
2023-02-11T07:31:56.138Z,290.90
2023-02-11T07:32:56.832Z,290.20
2023-02-11T07:33:57.528Z,287.20
2023-02-11T07:34:58.287Z,306.30
2023-02-11T07:35:59.007Z,284.70
2023-02-11T07:37:00.128Z,291.50
2023-02-11T07:38:00.322Z,284.00
2023-02-11T07:39:01.031Z,291.20
2023-02-11T07:40:01.728Z,278.50
2023-02-11T07:41:02.462Z,302.30
2023-02-11T07:42:03.618Z,309.60
2023-02-11T07:43:03.825Z,308.50
2023-02-11T07:44:04.537Z,312.10
2023-02-11T07:45:05.241Z,318.20
2023-02-11T07:46:05.941Z,310.40
2023-02-11T07:47:07.299Z,304.40
2023-02-11T07:48:07.472Z,314.20
2023-02-11T07:49:08.186Z,308.00
2023-02-11T07:50:08.866Z,307.90
2023-02-11T07:51:09.577Z,321.90
2023-02-11T07:52:10.608Z,315.20
2023-02-11T07:53:10.811Z,331.80
2023-02-11T07:54:11.541Z,320.90
2023-02-11T07:55:12.224Z,326.70
2023-02-11T07:56:12.947Z,312.60
2023-02-11T07:57:13.606Z,324.40
2023-02-11T07:58:14.313Z,317.70
2023-02-11T07:59:15.040Z,319.80
2023-02-11T08:00:15.724Z,329.70
2023-02-11T08:01:16.600Z,349.30
2023-02-11T08:02:17.432Z,347.50
2023-02-11T08:03:18.126Z,336.50
2023-02-11T08:04:18.810Z,347.80
2023-02-11T08:05:19.514Z,315.20
2023-02-11T08:06:20.220Z,331.40
2023-02-11T08:07:21.112Z,332.10
2023-02-11T08:08:21.820Z,350.90
2023-02-11T08:09:22.532Z,345.30
2023-02-11T08:10:23.240Z,346.80
2023-02-11T08:11:23.961Z,347.30
2023-02-11T08:12:24.629Z,321.70
2023-02-11T08:13:25.338Z,329.00
2023-02-11T08:14:26.044Z,334.60
2023-02-11T08:15:26.766Z,357.50
2023-02-11T08:16:27.546Z,359.50
2023-02-11T08:17:28.215Z,344.00
2023-02-11T08:18:28.940Z,348.00
2023-02-11T08:19:29.642Z,352.10
2023-02-11T08:20:30.332Z,333.80
2023-02-11T08:21:31.040Z,340.50
2023-02-11T08:22:31.754Z,339.50
2023-02-11T08:23:32.461Z,342.30
2023-02-11T08:24:33.166Z,351.90
2023-02-11T08:25:33.873Z,350.40
2023-02-11T08:26:34.693Z,353.20
2023-02-11T08:27:35.610Z,341.10
2023-02-11T08:28:36.440Z,346.90
2023-02-11T08:29:37.154Z,333.50
2023-02-11T08:30:37.901Z,324.60
2023-02-11T08:31:38.764Z,331.10
2023-02-11T08:32:39.609Z,327.20
2023-02-11T08:33:40.391Z,323.20
2023-02-11T08:34:41.024Z,347.90
2023-02-11T08:35:41.729Z,334.90
2023-02-11T08:36:42.444Z,344.40
2023-02-11T08:37:44.623Z,336.00
2023-02-11T08:38:43.756Z,328.20
2023-02-11T08:39:44.453Z,344.60
2023-02-11T08:40:45.161Z,331.40
2023-02-11T08:41:45.890Z,324.60
2023-02-11T08:42:46.579Z,309.90
2023-02-11T08:43:47.290Z,318.20
2023-02-11T08:44:47.986Z,339.80
2023-02-11T08:45:49.213Z,312.90
2023-02-11T08:46:49.535Z,328.10
2023-02-11T08:47:50.618Z,328.70
2023-02-11T08:48:50.841Z,331.00
2023-02-11T08:49:51.534Z,324.50
2023-02-11T08:50:52.245Z,315.40
2023-02-11T08:51:52.952Z,314.60
2023-02-11T08:52:54.111Z,302.00
2023-02-11T08:53:54.317Z,330.50
2023-02-11T08:54:55.024Z,319.50
2023-02-11T08:55:55.765Z,335.00
2023-02-11T08:56:56.487Z,336.80
2023-02-11T08:57:57.609Z,309.00
2023-02-11T08:58:57.822Z,311.10
2023-02-11T08:59:58.540Z,296.00
2023-02-11T09:00:59.257Z,283.10
2023-02-11T09:02:00.154Z,284.70
2023-02-11T09:03:01.113Z,295.80
2023-02-11T09:04:01.343Z,295.70
2023-02-11T09:05:02.031Z,297.90
2023-02-11T09:06:02.737Z,312.20
2023-02-11T09:07:03.466Z,307.00
2023-02-11T09:08:04.609Z,293.30
2023-02-11T09:09:04.822Z,309.10
2023-02-11T09:10:05.525Z,290.60
2023-02-11T09:11:06.260Z,292.70
2023-02-11T09:12:06.962Z,291.60
2023-02-11T09:13:07.611Z,289.90
2023-02-11T09:14:08.319Z,274.40
2023-02-11T09:15:09.038Z,301.40
2023-02-11T09:16:09.739Z,283.00
2023-02-11T09:17:10.452Z,282.10
2023-02-11T09:18:11.612Z,288.10
2023-02-11T09:19:11.851Z,277.00
2023-02-11T09:20:12.537Z,290.40
2023-02-11T09:21:13.233Z,247.20
2023-02-11T09:22:13.949Z,256.30
2023-02-11T09:23:17.622Z,251.70
2023-02-11T09:24:15.197Z,262.20
2023-02-11T09:25:15.898Z,257.90
2023-02-11T09:26:16.610Z,242.40
2023-02-11T09:27:17.338Z,263.40
2023-02-11T09:28:18.014Z,246.30
2023-02-11T09:29:18.685Z,236.70
2023-02-11T09:30:19.423Z,254.40
2023-02-11T09:31:20.297Z,260.40
2023-02-11T09:32:20.986Z,252.50
2023-02-11T09:33:21.698Z,242.30
2023-02-11T09:34:22.427Z,226.90
2023-02-11T09:35:23.116Z,225.70
2023-02-11T09:36:23.827Z,239.60
2023-02-11T09:37:24.537Z,226.30
2023-02-11T09:38:25.260Z,218.80
2023-02-11T09:39:25.954Z,228.80
2023-02-11T09:40:26.663Z,241.10
2023-02-11T09:41:27.381Z,222.70
2023-02-11T09:42:28.095Z,215.90
2023-02-11T09:43:28.730Z,223.70
2023-02-11T09:44:29.438Z,240.60
2023-02-11T09:45:30.156Z,227.30
2023-02-11T09:46:30.897Z,238.50
2023-02-11T09:47:31.626Z,230.50
2023-02-11T09:48:32.630Z,236.70
2023-02-11T09:49:32.851Z,212.40
2023-02-11T09:50:33.550Z,220.90
2023-02-11T09:51:34.253Z,216.40
2023-02-11T09:52:34.954Z,216.80
2023-02-11T09:53:36.116Z,224.00
2023-02-11T09:54:36.326Z,222.30
2023-02-11T09:55:37.033Z,216.80
2023-02-11T09:56:37.757Z,205.30
2023-02-11T09:57:38.466Z,221.80
2023-02-11T09:58:39.621Z,220.30
2023-02-11T09:59:39.849Z,200.10
2023-02-11T10:00:40.561Z,211.40
2023-02-11T10:01:41.317Z,210.50
2023-02-11T10:02:41.966Z,213.30
2023-02-11T10:03:43.127Z,209.40
2023-02-11T10:04:43.448Z,211.10
2023-02-11T10:05:44.112Z,218.50
2023-02-11T10:06:44.844Z,212.00
2023-02-11T10:07:45.559Z,217.00
2023-02-11T10:08:46.617Z,201.10
2023-02-11T10:09:46.856Z,230.80
2023-02-11T10:10:47.573Z,197.10
2023-02-11T10:11:48.244Z,208.60
2023-02-11T10:12:48.974Z,182.80
2023-02-11T10:13:50.138Z,202.50
2023-02-11T10:14:50.333Z,201.40
2023-02-11T10:15:51.139Z,200.50
2023-02-11T10:16:51.795Z,194.70
2023-02-11T10:17:52.563Z,190.00
2023-02-11T10:18:53.624Z,199.60
2023-02-11T10:19:53.846Z,196.50
2023-02-11T10:20:54.531Z,195.50
2023-02-11T10:21:55.261Z,192.40
2023-02-11T10:22:55.951Z,190.90
2023-02-11T10:23:56.673Z,187.60
2023-02-11T10:24:57.372Z,194.80
2023-02-11T10:25:58.077Z,191.80
2023-02-11T10:26:58.785Z,185.00
2023-02-11T10:27:59.601Z,197.80
2023-02-11T10:29:00.633Z,181.90
2023-02-11T10:30:00.847Z,179.60
2023-02-11T10:31:01.738Z,189.60
2023-02-11T10:32:02.524Z,175.90
2023-02-11T10:33:03.223Z,179.40
2023-02-11T10:34:04.124Z,177.70
2023-02-11T10:35:04.862Z,181.60
2023-02-11T10:36:05.572Z,183.30
2023-02-11T10:37:06.255Z,184.50
2023-02-11T10:38:06.970Z,182.40
2023-02-11T10:39:08.123Z,191.90
2023-02-11T10:40:08.331Z,182.50
2023-02-11T10:41:09.035Z,176.70
2023-02-11T10:42:09.743Z,162.10
2023-02-11T10:43:10.465Z,169.40
2023-02-11T10:44:11.139Z,168.20
2023-02-11T10:45:11.851Z,170.80
2023-02-11T10:46:12.632Z,177.80
2023-02-11T10:47:13.271Z,161.40
2023-02-11T10:48:16.446Z,175.10
2023-02-11T10:49:14.692Z,167.00
2023-02-11T10:50:15.408Z,182.70
2023-02-11T10:51:16.102Z,165.20
2023-02-11T10:52:16.795Z,167.40
2023-02-11T10:53:17.504Z,165.10
2023-02-11T10:54:18.622Z,167.20
2023-02-11T10:55:18.833Z,163.10
2023-02-11T10:56:19.548Z,182.00
2023-02-11T10:57:20.254Z,173.00
2023-02-11T10:58:20.984Z,170.20
2023-02-11T10:59:21.775Z,168.00
2023-02-11T11:00:22.426Z,159.30
2023-02-11T11:01:24.948Z,162.80
2023-02-11T11:02:23.759Z,167.00
2023-02-11T11:03:24.484Z,169.80
2023-02-11T11:04:25.206Z,166.10
2023-02-11T11:05:25.930Z,161.50
2023-02-11T11:06:26.607Z,167.50
2023-02-11T11:07:27.316Z,159.70
2023-02-11T11:08:28.024Z,159.40
2023-02-11T11:09:28.735Z,158.00
2023-02-11T11:10:29.448Z,151.90
2023-02-11T11:11:30.146Z,155.50
2023-02-11T11:12:30.851Z,153.40
2023-02-11T11:13:31.575Z,153.50
2023-02-11T11:14:32.651Z,158.80
2023-02-11T11:15:32.868Z,158.80
2023-02-11T11:16:33.579Z,156.00
2023-02-11T11:17:34.282Z,144.70
2023-02-11T11:18:34.988Z,148.40
2023-02-11T11:19:36.129Z,143.50
2023-02-11T11:20:36.355Z,148.70
2023-02-11T11:21:37.047Z,151.80
2023-02-11T11:22:37.752Z,141.40
2023-02-11T11:23:38.463Z,149.80
2023-02-11T11:24:39.185Z,144.30
2023-02-11T11:25:39.884Z,149.10
2023-02-11T11:26:40.602Z,148.90
2023-02-11T11:27:41.297Z,149.40
2023-02-11T11:28:42.030Z,140.20
2023-02-11T11:29:42.670Z,149.00
2023-02-11T11:30:43.423Z,147.20
2023-02-11T11:31:44.158Z,149.40
2023-02-11T11:32:44.805Z,151.80
2023-02-11T11:33:45.505Z,144.50
2023-02-11T11:34:46.218Z,143.70
2023-02-11T11:35:46.944Z,145.60
2023-02-11T11:36:47.629Z,147.20
2023-02-11T11:37:48.336Z,147.10
2023-02-11T11:38:49.043Z,147.60
2023-02-11T11:39:50.125Z,150.50
2023-02-11T11:40:50.641Z,152.70
2023-02-11T11:41:50.940Z,144.40
2023-02-11T11:42:51.653Z,137.10
2023-02-11T11:43:52.380Z,159.10
2023-02-11T11:44:53.030Z,152.40
2023-02-11T11:45:53.744Z,149.70
2023-02-11T11:46:54.462Z,153.10
2023-02-11T11:47:55.145Z,143.90
2023-02-11T11:48:55.849Z,151.10
2023-02-11T11:49:56.591Z,158.70
2023-02-11T11:50:57.302Z,142.90
2023-02-11T11:51:57.984Z,154.50
2023-02-11T11:52:58.689Z,153.00
2023-02-11T11:53:59.392Z,156.60
2023-02-11T11:55:00.142Z,151.00
2023-02-11T11:56:00.839Z,157.70
2023-02-11T11:57:01.545Z,155.80
2023-02-11T11:58:02.242Z,151.10
2023-02-11T11:59:02.967Z,157.00
2023-02-11T12:00:03.624Z,154.00
2023-02-11T12:01:04.331Z,156.00
2023-02-11T12:02:08.111Z,151.80
2023-02-11T12:03:05.635Z,146.50
2023-02-11T12:04:06.341Z,148.90
2023-02-11T12:05:07.121Z,149.70
2023-02-11T12:06:07.862Z,151.20
2023-02-11T12:07:08.537Z,146.60
2023-02-11T12:08:09.277Z,148.90
2023-02-11T12:09:09.962Z,158.10
2023-02-11T12:10:11.130Z,152.90
2023-02-11T12:11:11.332Z,147.90
2023-02-11T12:12:12.050Z,153.90
2023-02-11T12:13:12.754Z,146.10
2023-02-11T12:14:13.479Z,152.10
2023-02-11T12:15:14.200Z,150.70
2023-02-11T12:16:14.925Z,154.90
2023-02-11T12:17:15.603Z,159.50
2023-02-11T12:18:16.334Z,161.50
2023-02-11T12:19:17.033Z,153.10
2023-02-11T12:20:17.748Z,147.40
2023-02-11T12:21:18.495Z,158.70
2023-02-11T12:22:19.164Z,153.30
2023-02-11T12:23:19.868Z,158.70
2023-02-11T12:24:20.581Z,148.20
2023-02-11T12:25:21.628Z,156.30
2023-02-11T12:26:21.854Z,156.90
2023-02-11T12:27:22.566Z,152.10
2023-02-11T12:28:23.352Z,149.20
2023-02-11T12:29:24.082Z,162.40
2023-02-11T12:30:25.132Z,156.00
2023-02-11T12:31:25.534Z,147.90
2023-02-11T12:32:26.250Z,158.20
2023-02-11T12:33:26.954Z,152.90
2023-02-11T12:34:27.664Z,162.70
2023-02-11T12:35:28.376Z,157.90
2023-02-11T12:36:29.099Z,151.70
2023-02-11T12:37:29.804Z,155.80
2023-02-11T12:38:30.493Z,148.60
2023-02-11T12:39:31.203Z,156.20
2023-02-11T12:40:31.917Z,156.50
2023-02-11T12:41:32.621Z,156.80
2023-02-11T12:42:33.328Z,146.80
2023-02-11T12:43:34.036Z,150.70
2023-02-11T12:44:34.755Z,155.10
2023-02-11T12:45:35.448Z,145.40